TimeCDT,TemperatureF,Dew PointF,Humidity,Sea Level PressureIn,VisibilityMPH,Wind Direction,Wind SpeedMPH,Gust SpeedMPH,PrecipitationIn,Events,Conditions,WindDirDegrees,DateUTC
12:53 AM,30.0,10.0,43,30.04,10.0,NNE,10.4,-,N/A,,Scattered Clouds,30,2013-04-11 05:53:00
1:53 AM,27.0,9.0,47,30.01,10.0,NE,6.9,-,N/A,,Clear,40,2013-04-11 06:53:00
2:53 AM,27.0,10.0,49,29.96,10.0,Calm,Calm,-,N/A,,Clear,0,2013-04-11 07:53:00
3:53 AM,24.1,10.9,57,29.94,10.0,NW,4.6,-,N/A,,Clear,320,2013-04-11 08:53:00
4:53 AM,19.9,9.0,62,29.92,10.0,West,5.8,-,N/A,,Clear,270,2013-04-11 09:53:00
5:53 AM,21.9,10.0,60,29.92,10.0,West,9.2,-,N/A,,Clear,260,2013-04-11 10:53:00
6:53 AM,19.9,10.0,65,29.91,9.0,West,6.9,-,N/A,,Clear,260,2013-04-11 11:53:00
7:53 AM,21.9,10.9,63,29.92,10.0,WSW,8.1,-,N/A,,Clear,250,2013-04-11 12:53:00
8:53 AM,30.9,12.0,46,29.89,10.0,WSW,17.3,-,N/A,,Clear,240,2013-04-11 13:53:00
9:53 AM,37.0,10.9,34,29.87,10.0,SW,17.3,-,N/A,,Clear,230,2013-04-11 14:53:00
10:53 AM,44.1,12.0,27,29.82,10.0,SW,18.4,-,N/A,,Clear,230,2013-04-11 15:53:00
11:53 AM,48.2,12.2,24,29.82,10.0,WSW,17.3,24.2,N/A,,Clear,240,2013-04-11 16:53:00
12:53 PM,57.0,12.0,17,29.77,10.0,West,11.5,-,N/A,,Clear,270,2013-04-11 17:53:00
1:53 PM,61.0,12.0,15,29.73,10.0,SW,10.4,18.4,N/A,,Clear,230,2013-04-11 18:53:00
2:53 PM,66.0,14.0,13,29.70,10.0,West,10.4,18.4,N/A,,Partly Cloudy,270,2013-04-11 19:53:00
4:53 PM,-9999,-9999,N/A,29.73,-9999.0,North,-9999.0,-,N/A,,Unknown,0,2013-04-11 21:53:00
5:53 PM,68.0,21.0,17,29.70,10.0,North,13.8,-,N/A,,Overcast,10,2013-04-11 22:53:00
6:53 PM,64.9,21.9,19,29.72,10.0,ENE,15.0,-,N/A,,Partly Cloudy,60,2013-04-11 23:53:00
7:53 PM,60.1,24.1,25,29.75,10.0,ENE,12.7,-,N/A,,Clear,60,2013-04-12 00:53:00
8:53 PM,54.0,24.1,31,29.81,10.0,ENE,10.4,-,N/A,,Overcast,60,2013-04-12 01:53:00
9:53 PM,51.1,26.1,38,29.83,10.0,ENE,13.8,-,N/A,,Clear,60,2013-04-12 02:53:00
10:53 PM,48.0,27.0,44,29.85,10.0,NE,12.7,-,N/A,,Clear,50,2013-04-12 03:53:00
11:53 PM,46.9,26.1,44,29.86,10.0,NE,13.8,-,N/A,,Clear,50,2013-04-12 04:53:00